首页
METAR-TAF:

METAR-TAF

机场 :

蒙特瑞Del Norte, 墨西哥

纬度: 25-52N, 经度: 100-14W, 海拔: 448米

当前天气观测

该预报发布于1小时和2分钟前的23:40 UTC
风速4节,风向东转东南
温度 29°C
湿度 66%
气压 1015 hPa
能見度: 11.3公里
散云层高于2500英尺
多云层高于7000英尺
阴天层高于20000英尺

METAR: MMAN 172340Z 12004KT 7SM SCT025 BKN070 OVC200 29/22 A2998 RMK SLP/// 5//// 9// 8/577 HZY BINOVC

时间: 19:42 (00:42 UTC)

预报

该预报发布于8小时和8分钟前的16:34 UTC
预报有效从17日的 18点(UTC)到 18日的 18点(UTC)
风速8节,风向
能見度: 8.0公里
多云层高于1500英尺
阴天层高于10000英尺
小雨
从 17日的 2100点(UTC)
风速8节,风向
能見度: 9.7公里
散云层高于2000英尺
多云层高于7000英尺
多云层高于14000英尺
从 18日的 0400点(UTC)
风速4节,风向
能見度: 8.0公里
散云层高于1500英尺
多云层高于2000英尺
成为
从 18日的 09点(UTC)到 18日的 10点(UTC)
能見度: 3.2公里
多云层高于1000英尺
阴天层高于1500英尺
轻雾, 霾
从 18日的 1500点(UTC)
风速6节,风向
能見度: 9.7公里
散云层高于1500英尺
多云层高于2000英尺
霾,

TAF: MMAN 171634Z 1718/1818 35008KT 5SM -RA BKN015 OVC100 FM172100 35008KT 6SM HZ SCT020 BKN070 BKN140 FM180400 10004KT 5SM HZ SCT015 BKN020 BECMG 1809/1810 2SM BR HZ BKN010 OVC015 FM181500 10006KT 6SM HZ SCT015 BKN020

超过4000个机场的气象观测和天气预报(METAR&TAF报告)。

可查询的气象台以黄色和红色小点在地图上表示。

将鼠标移到小点上方,可查看气象台名称。

然后点击查看天气观测和预报。

如需切换地图:点击带黑十字的绿色按钮放大地图;点击带横线的绿色按钮缩小地图;或者点击绿色箭头查看邻近地区的地图。


METAR-TAF: